createdAt,value
2019-04-11T00:00:38.147Z,73.40
2019-04-11T00:03:11.396Z,79.03
2019-04-11T00:05:45.330Z,81.13
2019-04-11T00:08:19.595Z,85.10
2019-04-11T00:10:51.353Z,90.53
2019-04-11T00:13:25.833Z,84.20
2019-04-11T00:15:57.635Z,81.87
2019-04-11T00:18:30.360Z,75.93
2019-04-11T00:21:02.075Z,69.53
2019-04-11T00:23:34.799Z,65.47
2019-04-11T00:26:08.421Z,79.33
2019-04-11T00:28:40.168Z,87.00
2019-04-11T00:31:13.101Z,91.00
2019-04-11T00:33:46.648Z,78.17
2019-04-11T00:36:20.023Z,62.63
2019-04-11T00:38:53.081Z,70.87
2019-04-11T00:41:26.045Z,74.73
2019-04-11T00:43:58.677Z,73.93
2019-04-11T00:46:32.058Z,82.37
2019-04-11T00:49:06.113Z,81.13
2019-04-11T00:51:38.255Z,72.80
2019-04-11T00:54:11.188Z,70.33
2019-04-11T00:56:45.216Z,79.87
2019-04-11T00:59:18.338Z,78.10
2019-04-11T01:01:51.504Z,67.03
2019-04-11T01:04:25.461Z,68.90
2019-04-11T01:06:58.663Z,65.90
2019-04-11T01:09:30.882Z,66.43
2019-04-11T01:12:04.657Z,64.83
2019-04-11T01:14:38.639Z,56.93
2019-04-11T01:17:12.738Z,70.23
2019-04-11T01:19:46.878Z,57.40
2019-04-11T01:22:20.154Z,58.07
2019-04-11T01:24:53.188Z,63.37
2019-04-11T01:27:27.792Z,65.73
2019-04-11T01:29:59.935Z,70.97
2019-04-11T01:32:33.086Z,63.50
2019-04-11T01:35:06.876Z,55.47
2019-04-11T01:37:40.152Z,58.53
2019-04-11T01:40:13.782Z,57.67
2019-04-11T01:42:45.658Z,60.73
2019-04-11T01:45:19.146Z,64.97
2019-04-11T01:47:53.267Z,64.33
2019-04-11T01:50:27.772Z,59.80
2019-04-11T01:53:00.475Z,64.90
2019-04-11T01:55:34.875Z,56.93
2019-04-11T01:58:06.721Z,57.53
2019-04-11T02:00:42.052Z,59.77
2019-04-11T02:03:23.693Z,55.37
2019-04-11T02:05:55.592Z,60.40
2019-04-11T02:08:29.346Z,59.30
2019-04-11T02:11:01.342Z,60.63
2019-04-11T02:13:34.394Z,56.97
2019-04-11T02:16:06.126Z,49.17
2019-04-11T02:18:39.418Z,45.63
2019-04-11T02:21:13.623Z,48.40
2019-04-11T02:23:55.269Z,55.97
2019-04-11T02:26:29.864Z,46.30
2019-04-11T02:29:03.452Z,51.13
2019-04-11T02:31:36.782Z,46.90
2019-04-11T02:34:08.826Z,55.97
2019-04-11T02:36:43.388Z,45.87
2019-04-11T02:39:19.734Z,52.00
2019-04-11T02:41:52.759Z,50.67
2019-04-11T02:44:41.417Z,49.37
2019-04-11T02:47:05.680Z,50.93
2019-04-11T02:49:33.768Z,50.47
2019-04-11T02:52:07.203Z,53.50
2019-04-11T02:54:41.031Z,48.93
2019-04-11T02:57:16.328Z,55.47
2019-04-11T02:59:51.213Z,57.63
2019-04-11T03:02:24.329Z,53.57
2019-04-11T03:04:58.253Z,54.53
2019-04-11T03:07:31.967Z,50.60
2019-04-11T03:10:09.321Z,53.40
2019-04-11T03:12:40.722Z,43.60
2019-04-11T03:15:28.753Z,52.47
2019-04-11T03:17:50.678Z,46.43
2019-04-11T03:20:31.720Z,49.03
2019-04-11T03:23:04.096Z,45.13
2019-04-11T03:25:32.987Z,44.03
2019-04-11T03:28:05.552Z,43.10
2019-04-11T03:31:01.897Z,43.07
2019-04-11T03:34:01.734Z,42.70
2019-04-11T03:36:38.041Z,43.93
2019-04-11T03:38:46.691Z,40.07
2019-04-11T03:41:15.855Z,42.17
2019-04-11T03:43:45.851Z,46.30
2019-04-11T03:46:25.345Z,42.33
2019-04-11T03:48:55.732Z,38.13
2019-04-11T03:51:21.031Z,46.03
2019-04-11T03:53:53.687Z,44.03
2019-04-11T03:56:28.521Z,46.77
2019-04-11T03:59:01.429Z,42.67
2019-04-11T04:01:34.981Z,41.43
2019-04-11T04:04:11.122Z,39.50
2019-04-11T04:06:43.595Z,43.23
2019-04-11T04:09:17.071Z,44.83
2019-04-11T04:11:51.334Z,38.27
2019-04-11T04:14:26.369Z,40.13
2019-04-11T04:17:04.243Z,42.10
2019-04-11T04:19:37.690Z,43.17
2019-04-11T04:22:20.650Z,37.40
2019-04-11T04:24:55.773Z,40.67
2019-04-11T04:27:28.129Z,42.83
2019-04-11T04:30:02.370Z,34.67
2019-04-11T04:32:36.276Z,41.00
2019-04-11T04:35:11.508Z,23.23
2019-04-11T04:37:43.354Z,31.40
2019-04-11T04:40:34.158Z,30.97
2019-04-11T04:42:55.928Z,41.37
2019-04-11T04:45:27.850Z,28.87
2019-04-11T04:48:05.611Z,31.93
2019-04-11T04:50:36.678Z,28.67
2019-04-11T04:53:10.221Z,33.00
2019-04-11T04:55:45.649Z,31.87
2019-04-11T04:58:18.048Z,36.97
2019-04-11T05:00:53.838Z,29.30
2019-04-11T05:03:26.913Z,31.33
2019-04-11T05:06:01.219Z,37.23
2019-04-11T05:08:34.767Z,29.17
2019-04-11T05:11:07.901Z,30.53
2019-04-11T05:13:44.482Z,21.53
2019-04-11T05:16:17.884Z,23.63
2019-04-11T05:18:50.793Z,24.07
2019-04-11T05:21:29.620Z,27.60
2019-04-11T05:24:02.648Z,27.13
2019-04-11T05:26:35.933Z,19.20
2019-04-11T05:29:09.027Z,22.10
2019-04-11T05:31:41.158Z,17.27
2019-04-11T05:34:14.008Z,18.13
2019-04-11T05:36:47.252Z,18.37
2019-04-11T05:39:20.284Z,16.77
2019-04-11T05:41:54.417Z,17.10
2019-04-11T05:44:26.287Z,14.43
2019-04-11T05:47:01.913Z,15.27
2019-04-11T05:49:37.271Z,16.87
2019-04-11T05:52:10.534Z,14.77
2019-04-11T05:54:54.330Z,11.53
2019-04-11T05:57:33.041Z,14.93
2019-04-11T06:00:01.296Z,14.77
2019-04-11T06:02:39.540Z,17.27
2019-04-11T06:05:23.860Z,24.23
2019-04-11T06:08:00.454Z,12.87
2019-04-11T06:10:43.537Z,18.90
2019-04-11T06:13:16.648Z,16.93
2019-04-11T06:15:51.384Z,20.43
2019-04-11T06:18:32.041Z,30.87
2019-04-11T06:21:07.425Z,12.90
2019-04-11T06:23:43.960Z,12.43
2019-04-11T06:26:21.306Z,14.30
2019-04-11T06:28:56.997Z,29.80
2019-04-11T06:31:34.633Z,11.73
2019-04-11T06:34:09.237Z,41.83
2019-04-11T06:36:43.391Z,20.53
2019-04-11T06:39:33.566Z,19.70
2019-04-11T06:42:10.736Z,14.47
2019-04-11T06:44:43.820Z,17.47
2019-04-11T06:47:21.253Z,4.53
2019-04-11T06:49:58.611Z,11.87
2019-04-11T06:52:36.990Z,20.87
2019-04-11T06:55:18.281Z,16.83
2019-04-11T06:58:02.917Z,8.63
2019-04-11T07:00:39.102Z,14.00
2019-04-11T07:03:20.638Z,7.60
2019-04-11T07:05:51.058Z,8.30
2019-04-11T07:08:27.317Z,14.13
2019-04-11T07:11:03.275Z,10.63
2019-04-11T07:13:37.852Z,6.77
2019-04-11T07:16:11.267Z,7.93
2019-04-11T07:18:57.051Z,6.70
2019-04-11T07:21:33.072Z,6.23
2019-04-11T07:24:25.397Z,11.17
2019-04-11T07:27:00.946Z,6.70
2019-04-11T07:29:48.558Z,8.73
2019-04-11T07:32:20.403Z,15.27
2019-04-11T07:34:56.638Z,16.50
2019-04-11T07:37:32.680Z,3.57
2019-04-11T07:40:15.579Z,9.33
2019-04-11T07:42:53.151Z,7.00
2019-04-11T07:45:37.694Z,3.40
2019-04-11T07:48:27.278Z,4.63
2019-04-11T07:51:03.250Z,6.10
2019-04-11T07:53:37.289Z,8.03
2019-04-11T07:56:09.871Z,6.13
2019-04-11T07:58:46.507Z,6.07
2019-04-11T08:01:21.065Z,4.77
2019-04-11T08:04:12.714Z,3.07
2019-04-11T08:07:04.360Z,3.07
2019-04-11T08:09:50.623Z,4.07
2019-04-11T08:12:21.718Z,5.53
2019-04-11T08:15:13.349Z,4.47
2019-04-11T08:17:46.528Z,5.73
2019-04-11T08:20:37.566Z,9.40
2019-04-11T08:26:42.247Z,6.27
2019-04-11T08:29:16.065Z,4.20
2019-04-11T08:32:07.318Z,3.17
2019-04-11T08:35:17.692Z,5.37
2019-04-11T08:37:58.030Z,3.83
2019-04-11T08:40:33.611Z,9.33
2019-04-11T08:43:13.131Z,12.67
2019-04-11T08:46:05.314Z,10.70
2019-04-11T08:48:57.286Z,4.40
2019-04-11T08:51:33.574Z,9.17
2019-04-11T08:54:15.501Z,9.00
2019-04-11T08:56:59.161Z,5.93
2019-04-11T08:59:37.867Z,3.27
2019-04-11T09:02:11.231Z,9.80
2019-04-11T09:05:08.484Z,8.70
2019-04-11T09:07:41.650Z,4.87
2019-04-11T09:10:33.768Z,9.00
2019-04-11T09:13:13.266Z,5.80
2019-04-11T09:16:10.342Z,3.37
2019-04-11T09:18:44.085Z,4.03
2019-04-11T09:21:34.165Z,1.90
2019-04-11T09:24:08.319Z,21.60
2019-04-11T09:26:52.241Z,4.47
2019-04-11T09:29:40.125Z,29.13
2019-04-11T09:32:14.022Z,10.50
2019-04-11T09:35:04.183Z,3.90
2019-04-11T09:37:37.871Z,3.40
2019-04-11T09:40:28.329Z,5.03
2019-04-11T09:43:07.164Z,5.20
2019-04-11T09:45:59.756Z,6.23
2019-04-11T09:48:50.405Z,6.20
2019-04-11T09:51:30.298Z,4.63
2019-04-11T09:54:10.126Z,9.93
2019-04-11T09:57:04.360Z,5.23
2019-04-11T09:59:56.366Z,3.60
2019-04-11T10:02:41.941Z,4.47
2019-04-11T10:05:16.555Z,3.77
2019-04-11T10:07:50.644Z,7.50
2019-04-11T10:10:29.150Z,2.90
2019-04-11T10:13:16.313Z,52.73
2019-04-11T10:15:53.813Z,66.97
2019-04-11T10:18:37.290Z,192.60
2019-04-11T10:21:06.778Z,50.77
2019-04-11T10:23:58.870Z,77.33
2019-04-11T10:26:34.183Z,9.97
2019-04-11T10:29:27.488Z,14.77
2019-04-11T10:32:01.163Z,71.93
2019-04-11T10:34:38.577Z,42.77
2019-04-11T10:37:12.003Z,11.90
2019-04-11T10:39:51.328Z,126.17
2019-04-11T10:42:24.846Z,26.03
2019-04-11T10:45:08.521Z,11.23
2019-04-11T10:47:41.335Z,18.83
2019-04-11T10:50:17.637Z,6.70
2019-04-11T10:52:52.995Z,50.70
2019-04-11T10:55:27.746Z,24.43
2019-04-11T10:58:08.818Z,23.77
2019-04-11T11:00:49.761Z,42.37
2019-04-11T11:03:24.401Z,18.00
2019-04-11T11:05:59.652Z,23.57
2019-04-11T11:08:39.685Z,68.97
2019-04-11T11:11:15.902Z,9.63
2019-04-11T11:13:50.091Z,14.63
2019-04-11T11:16:24.779Z,17.07
2019-04-11T11:19:31.186Z,7.47
2019-04-11T11:21:37.069Z,6.00
2019-04-11T11:24:28.151Z,57.57
2019-04-11T11:27:03.997Z,27.13
2019-04-11T11:29:37.127Z,6.27
2019-04-11T11:32:11.320Z,2.83
2019-04-11T11:34:52.957Z,25.73
2019-04-11T11:37:35.946Z,24.53
2019-04-11T11:40:14.675Z,8.47
2019-04-11T11:42:48.426Z,26.60
2019-04-11T11:45:33.211Z,13.40
2019-04-11T11:48:12.826Z,5.83
2019-04-11T11:50:40.525Z,8.93
2019-04-11T11:53:18.487Z,12.93
2019-04-11T11:55:51.657Z,1.80
2019-04-11T11:58:25.783Z,5.83
2019-04-11T12:01:03.673Z,11.07
2019-04-11T12:03:46.994Z,28.40
2019-04-11T12:06:22.262Z,45.53
2019-04-11T12:08:56.082Z,35.73
2019-04-11T12:11:28.400Z,7.33
2019-04-11T12:14:09.704Z,23.90
2019-04-11T12:16:42.430Z,89.37
2019-04-11T12:19:21.712Z,15.47
2019-04-11T12:21:55.970Z,8.20
2019-04-11T12:24:34.750Z,14.10
2019-04-11T12:27:13.220Z,14.83
2019-04-11T12:29:50.517Z,20.67
2019-04-11T12:32:28.457Z,15.07
2019-04-11T12:35:08.234Z,18.53
2019-04-11T12:37:51.826Z,34.33
2019-04-11T12:40:42.621Z,69.50
2019-04-11T12:43:15.643Z,10.13
2019-04-11T12:45:54.180Z,15.00
2019-04-11T12:48:28.671Z,7.57
2019-04-11T12:51:19.151Z,16.13
2019-04-11T12:53:50.810Z,14.30
2019-04-11T12:56:26.902Z,5.63
2019-04-11T12:58:59.848Z,7.67
2019-04-11T13:01:34.447Z,8.47
2019-04-11T13:04:14.867Z,4.83
2019-04-11T13:06:49.411Z,4.90
2019-04-11T13:09:23.871Z,8.10
2019-04-11T13:11:57.149Z,12.27
2019-04-11T13:14:32.771Z,17.37
2019-04-11T13:17:22.362Z,14.67
2019-04-11T13:20:13.231Z,18.00
2019-04-11T13:22:44.960Z,7.13
2019-04-11T13:25:35.613Z,3.53
2019-04-11T13:28:08.895Z,5.43
2019-04-11T13:30:40.306Z,8.03
2019-04-11T13:33:13.653Z,7.23
2019-04-11T13:36:04.323Z,11.80
2019-04-11T13:38:38.331Z,8.77
2019-04-11T13:41:29.303Z,11.83
2019-04-11T13:44:05.504Z,5.87
2019-04-11T13:46:38.797Z,5.13
2019-04-11T13:49:17.954Z,9.83
2019-04-11T13:51:51.267Z,4.27
2019-04-11T13:54:40.717Z,5.90
2019-04-11T13:57:12.234Z,11.77
2019-04-11T14:00:02.770Z,3.97
2019-04-11T14:02:38.186Z,6.87
2019-04-11T14:05:13.914Z,7.30
2019-04-11T14:07:49.438Z,23.83
2019-04-11T14:10:23.297Z,4.67
2019-04-11T14:12:56.967Z,5.03
2019-04-11T14:15:31.128Z,6.03
2019-04-11T14:18:21.964Z,5.73
2019-04-11T14:20:59.076Z,59.23
2019-04-11T14:23:49.166Z,73.57
2019-04-11T14:26:32.546Z,22.20
2019-04-11T14:29:06.710Z,9.90
2019-04-11T14:31:47.947Z,13.90
2019-04-11T14:34:23.537Z,6.77
2019-04-11T14:37:00.385Z,8.20
2019-04-11T14:39:42.966Z,7.30
2019-04-11T14:42:19.900Z,15.50
2019-04-11T14:44:55.393Z,4.33
2019-04-11T14:47:39.179Z,6.57
2019-04-11T14:50:13.997Z,7.80
2019-04-11T14:53:01.285Z,7.60
2019-04-11T14:55:36.711Z,10.03
2019-04-11T14:58:25.479Z,9.40
2019-04-11T15:00:57.244Z,13.80
2019-04-11T15:03:31.404Z,13.20
2019-04-11T15:06:04.761Z,8.00
2019-04-11T15:08:54.161Z,9.33
2019-04-11T15:11:47.132Z,5.90
2019-04-11T15:14:30.483Z,10.37
2019-04-11T15:17:15.033Z,5.90
2019-04-11T15:19:56.774Z,14.37
2019-04-11T15:22:52.199Z,5.77
2019-04-11T15:25:27.096Z,11.53
2019-04-11T15:28:19.152Z,7.83
2019-04-11T15:31:00.850Z,12.77
2019-04-11T15:33:48.423Z,22.73
2019-04-11T15:36:28.638Z,10.83
2019-04-11T15:39:18.959Z,26.70
2019-04-11T15:41:59.253Z,15.40
2019-04-11T15:44:49.265Z,15.07
2019-04-11T15:47:27.684Z,32.83
2019-04-11T15:50:03.463Z,17.23
2019-04-11T15:52:37.965Z,30.70
2019-04-11T15:55:13.113Z,10.27
2019-04-11T15:57:49.444Z,8.03
2019-04-11T16:00:30.550Z,28.30
2019-04-11T16:03:07.345Z,22.13
2019-04-11T16:06:01.588Z,16.77
2019-04-11T16:08:43.458Z,17.83
2019-04-11T16:11:39.233Z,15.43
2019-04-11T16:14:16.128Z,13.97
2019-04-11T16:16:55.221Z,14.93
2019-04-11T16:19:48.866Z,21.40
2019-04-11T16:22:25.455Z,9.20
2019-04-11T16:25:06.972Z,16.77
2019-04-11T16:27:57.556Z,14.10
2019-04-11T16:30:31.004Z,18.60
2019-04-11T16:33:06.785Z,21.80
2019-04-11T16:35:57.339Z,16.00
2019-04-11T16:38:34.399Z,10.00
2019-04-11T16:41:07.737Z,10.87
2019-04-11T16:43:43.783Z,11.37
2019-04-11T16:46:35.416Z,19.57
2019-04-11T16:49:11.681Z,10.83
2019-04-11T16:51:48.534Z,12.63
2019-04-11T16:54:21.212Z,13.80
2019-04-11T16:57:01.374Z,14.53
2019-04-11T16:59:35.245Z,11.07
2019-04-11T17:02:11.189Z,7.50
2019-04-11T17:04:46.234Z,16.17
2019-04-11T17:07:39.034Z,14.57
2019-04-11T17:10:17.576Z,10.33
2019-04-11T17:12:56.869Z,16.17
2019-04-11T17:15:30.633Z,11.17
2019-04-11T17:18:03.163Z,13.30
2019-04-11T17:20:39.840Z,14.27
2019-04-11T17:23:12.774Z,8.20
2019-04-11T17:25:48.264Z,23.90
2019-04-11T17:28:22.625Z,153.87
2019-04-11T17:30:56.967Z,21.67
2019-04-11T17:33:30.995Z,47.43
2019-04-11T17:36:05.072Z,15.27
2019-04-11T17:38:37.737Z,19.00
2019-04-11T17:41:11.987Z,24.63
2019-04-11T17:43:46.726Z,14.80
2019-04-11T17:46:26.727Z,42.33
2019-04-11T17:48:59.278Z,71.63
2019-04-11T17:51:37.550Z,160.50
2019-04-11T17:54:13.526Z,103.00
2019-04-11T17:56:47.569Z,43.77
2019-04-11T17:59:23.165Z,40.13
2019-04-11T18:01:57.230Z,29.80
2019-04-11T18:04:31.937Z,42.97
2019-04-11T18:07:04.957Z,78.30
2019-04-11T18:09:39.271Z,71.33
2019-04-11T18:12:13.167Z,68.77
2019-04-11T18:14:46.431Z,73.67
2019-04-11T18:17:20.097Z,23.17
2019-04-11T18:20:04.547Z,35.53
2019-04-11T18:22:39.200Z,46.33
2019-04-11T18:25:12.399Z,38.43
2019-04-11T18:27:47.354Z,82.53
2019-04-11T18:30:23.303Z,52.07
2019-04-11T18:32:57.648Z,38.27
2019-04-11T18:35:37.217Z,45.07
2019-04-11T18:38:10.326Z,34.07
2019-04-11T18:40:42.379Z,38.60
2019-04-11T18:43:16.239Z,85.40
2019-04-11T18:45:49.718Z,129.50
2019-04-11T18:48:27.089Z,54.97
2019-04-11T18:51:01.734Z,28.30
2019-04-11T18:53:38.299Z,31.60
2019-04-11T18:56:14.515Z,15.97
2019-04-11T18:58:48.892Z,19.83
2019-04-11T19:01:25.243Z,16.83
2019-04-11T19:03:57.747Z,16.90
2019-04-11T19:06:32.600Z,15.47
2019-04-11T19:09:05.866Z,11.63
2019-04-11T19:11:39.054Z,26.00
2019-04-11T19:14:11.426Z,63.57
2019-04-11T19:16:43.804Z,23.20
2019-04-11T19:19:18.560Z,13.27
2019-04-11T19:21:54.096Z,23.10
2019-04-11T19:24:35.338Z,14.07
2019-04-11T19:27:09.187Z,29.37
2019-04-11T19:29:41.976Z,8.50
2019-04-11T19:32:18.075Z,9.77
2019-04-11T19:34:51.414Z,11.37
2019-04-11T19:37:23.966Z,15.13
2019-04-11T19:39:57.482Z,16.57
2019-04-11T19:42:30.482Z,18.63
2019-04-11T19:45:08.558Z,30.77
2019-04-11T19:47:41.766Z,17.93
2019-04-11T19:50:16.517Z,22.27
2019-04-11T19:52:50.232Z,12.03
2019-04-11T19:55:30.160Z,15.50
2019-04-11T19:58:02.583Z,20.87
2019-04-11T20:00:36.227Z,15.67
2019-04-11T20:03:10.349Z,18.60
2019-04-11T20:05:46.012Z,20.93
2019-04-11T20:08:20.147Z,13.60
2019-04-11T20:10:55.293Z,14.70
2019-04-11T20:13:31.950Z,23.77
2019-04-11T20:16:03.918Z,16.23
2019-04-11T20:18:37.724Z,11.87
2019-04-11T20:21:10.394Z,17.17
2019-04-11T20:23:44.683Z,18.77
2019-04-11T20:26:20.102Z,18.60
2019-04-11T20:28:56.104Z,19.13
2019-04-11T20:31:28.597Z,19.17
2019-04-11T20:34:01.695Z,13.83
2019-04-11T20:36:36.218Z,21.73
2019-04-11T20:39:15.303Z,17.60
2019-04-11T20:41:46.683Z,9.67
2019-04-11T20:44:27.221Z,19.93
2019-04-11T20:47:00.392Z,15.00
2019-04-11T20:49:35.457Z,14.77
2019-04-11T20:52:18.398Z,11.67
2019-04-11T20:54:51.944Z,8.87
2019-04-11T20:57:26.317Z,16.33
2019-04-11T20:59:58.523Z,15.60
2019-04-11T21:02:33.961Z,8.13
2019-04-11T21:05:07.001Z,14.93
2019-04-11T21:07:40.645Z,9.57
2019-04-11T21:10:12.694Z,10.13
2019-04-11T21:12:46.850Z,9.37
2019-04-11T21:15:19.912Z,12.70
2019-04-11T21:17:53.637Z,9.90
2019-04-11T21:20:25.191Z,11.67
2019-04-11T21:22:58.223Z,12.77
2019-04-11T21:25:29.939Z,10.37
2019-04-11T21:28:04.001Z,12.60
2019-04-11T21:30:35.863Z,11.03
2019-04-11T21:33:11.787Z,13.77
2019-04-11T21:35:43.871Z,13.90
2019-04-11T21:38:15.613Z,15.23
2019-04-11T21:40:48.888Z,17.23
2019-04-11T21:43:23.312Z,12.93
2019-04-11T21:45:57.399Z,10.87
2019-04-11T21:48:35.594Z,15.97
2019-04-11T21:51:05.979Z,13.10
2019-04-11T21:53:37.887Z,15.17
2019-04-11T21:56:09.763Z,13.23
2019-04-11T21:58:42.749Z,12.70
2019-04-11T22:01:17.867Z,15.00
2019-04-11T22:03:55.778Z,17.30
2019-04-11T22:06:30.469Z,11.93
2019-04-11T22:09:12.118Z,9.67
2019-04-11T22:11:45.176Z,11.00
2019-04-11T22:14:20.546Z,14.27
2019-04-11T22:16:56.062Z,18.03
2019-04-11T22:19:29.366Z,15.70
2019-04-11T22:22:02.340Z,15.63
2019-04-11T22:24:35.020Z,10.27
2019-04-11T22:27:08.005Z,12.40
2019-04-11T22:29:41.977Z,8.50
2019-04-11T22:32:18.069Z,13.70
2019-04-11T22:34:51.886Z,15.30
2019-04-11T22:37:27.714Z,11.03
2019-04-11T22:40:02.774Z,11.70
2019-04-11T22:42:34.884Z,16.27
2019-04-11T22:45:09.138Z,13.80
2019-04-11T22:47:40.806Z,12.07
2019-04-11T22:50:16.086Z,16.97
2019-04-11T22:52:48.957Z,12.17
2019-04-11T22:55:21.933Z,11.73
2019-04-11T22:57:53.758Z,13.70
2019-04-11T23:00:25.697Z,10.33
2019-04-11T23:03:04.876Z,9.03
2019-04-11T23:05:37.402Z,10.30
2019-04-11T23:08:09.018Z,12.07
2019-04-11T23:10:46.850Z,12.63
2019-04-11T23:13:22.980Z,10.27
2019-04-11T23:15:55.981Z,7.60
2019-04-11T23:18:28.953Z,11.87
2019-04-11T23:21:02.002Z,10.73
2019-04-11T23:23:33.743Z,10.50
2019-04-11T23:26:07.669Z,10.47
2019-04-11T23:28:40.317Z,7.87
2019-04-11T23:31:13.323Z,8.13
2019-04-11T23:33:46.308Z,8.87
2019-04-11T23:36:21.166Z,6.93
2019-04-11T23:38:53.843Z,6.97
2019-04-11T23:41:26.813Z,5.93
2019-04-11T23:43:59.769Z,8.53
2019-04-11T23:46:32.795Z,9.90
2019-04-11T23:49:05.763Z,6.57
2019-04-11T23:51:38.762Z,6.90
2019-04-11T23:54:22.580Z,5.53
2019-04-11T23:56:47.828Z,7.03
2019-04-11T23:59:20.467Z,7.40
